Tiempo atmosférico en la estación meteorológica de Melilla, Melilla (47 m.)



Fecha
DESCASC
Temp. máxima en grados centígrados (hora)
DESCASC
Temp. mínima en grados centígrados (hora)
DESCASC
Temp. media en grados centígrados
DESCASC
Racha de viento máxima en m/sg (hora)
DESCASC
Velocidad máxima media en intervalos de 10 minutos(hora)
DESCASC
Precipitaciones diarias en mm
DESCASC
Precipitaciones de 00:00 a 06:00 en mm
DESCASC
Precipitaciones de 06:00 a 12:00 en mm
DESCASC
Precipitaciones de 12:00 a 18:00 en mm
DESCASC
Precipitaciones de 18:00 a 24:00 en mm
DESCASC
13-10-2019 24.9 (12:10) 18.8 (08:30) 21.8 7.78 (15:30) 5 (10:00) 0 0 0 0 0
12-10-2019 25.1 (16:40) 19.9 (06:20) 22.5 6.67 (13:50) 4.17 (17:20) 0 0 0 0 0
11-10-2019 25 (13:40) 22.1 (04:00) 23.6 7.5 (05:20) 5.28 (03:00) 0 0 0 0 0
10-10-2019 24.9 (14:00) 20.4 (00:00) 22.6 7.78 (17:30) 5.83 (17:20) 0 0 0 0 0
09-10-2019 24.7 (14:00) 19.3 (00:00) 22 6.39 (16:20) 3.89 (12:00) 0 0 0 0 0
08-10-2019 25.6 (13:10) 19.1 (00:00) 22.4 8.06 (12:10) 4.72 (16:20) 0 0 0 0 0
07-10-2019 31.7 (15:50) 18.9 (00:00) 25.3 5 (15:50) 3.33 (16:10) 0 0 0 0 0
06-10-2019 28.5 (16:10) 18.2 (00:00) 23.4 6.11 (18:10) 3.33 (14:30) 0 0 0 0 0
05-10-2019 28.4 (15:00) 18.4 (00:00) 23.4 7.5 (16:20) 3.33 (13:20) 0 0 0 0 0
04-10-2019 27.8 (12:40) 17.9 (00:00) 22.8 7.78 (01:20) 5.28 (00:50) 0 0 0 0 0
03-10-2019 26.7 (15:40) 20.6 (00:00) 23.7 12.78 (11:20) 8.06 (06:30) 0 0 0 0 0
02-10-2019 27.6 (15:50) 22.6 (00:00) 25.1 16.94 (10:20) 10.83 (10:40) 0 0 0 0 0
01-10-2019 32.1 (15:50) 20 (00:00) 26 15 (17:20) 8.33 (17:20) 0 0 0 0 0
30-09-2019 27.2 (12:10) 20.3 (00:00) 23.8 5 (12:50) 3.33 (13:30) 0 0 0 0 0
29-09-2019 28 (16:30) 20.4 (00:00) 24.2 6.39 (11:20) 4.44 (16:10) 0 0 0 0 0
28-09-2019 26.7 (14:30) 21.5 (00:00) 24.1 5.83 (17:40) 3.89 (16:30) 0 0 0 0 0
27-09-2019 26.2 (12:10) 20.5 (00:00) 23.4 5.83 (19:20) 3.61 (15:00) 0 0 0 0 0
26-09-2019 28.9 (12:20) 20.9 (00:00) 24.9 5.56 (13:10) 3.61 (12:40) 0 0 0 0 0
25-09-2019 31.1 (11:50) 21.4 (00:00) 26.3 10.83 (18:40) 6.11 (19:10) 0 0 0 0 0
24-09-2019 28.7 (18:30) 19.3 (00:00) 24 6.94 (16:10) 4.44 (14:00) 0 0 0 0 0
23-09-2019 28 (13:00) 20.8 (00:00) 24.4 7.78 (01:10) 5.56 (16:50) 0 0 0 0 0
22-09-2019 27.5 (15:20) 21.1 (00:00) 24.3 12.78 (19:40) 7.22 (20:00) 0 0 0 0 0
21-09-2019 28.6 (15:10) 22.1 (00:00) 25.4 8.06 (16:30) 3.89 (13:40) 0 0 0 0 0
20-09-2019 26.8 (12:40) 22.3 (00:00) 24.5 7.5 (16:50) 5 (13:40) 0 0 0 0 0
19-09-2019 26 (15:00) 19.4 (00:00) 22.7 6.11 (16:40) 4.72 (18:00) 0 0 0 0 0
18-09-2019 27.1 (15:00) 21.7 (00:00) 24.4 7.22 (17:50) 3.61 (15:40) 0 0 0 0 0
17-09-2019 26.2 (14:50) 22.8 (00:00) 24.5 6.94 (10:50) 4.72 (12:10) 0 0 0 0 0
16-09-2019 26.7 (14:40) 20.6 (00:00) 23.7 5.56 (13:00) 3.89 (16:00) 0 0 0 0 0
15-09-2019 26.3 (16:10) 22.3 (00:00) 24.3 6.11 (03:00) 4.17 (03:20) 0 0 0 0 0

Gráficas

Temp. máximas Temp. mínimas Temp. medias Precipitaciones Rachas de viento máximas Velocidades máximas media en intervalos de 10 minutos

Datos horarios

Fecha y hora oficial Temperatura (ºC) Velocidad del viento (km/h) Dirección del viento Racha (km/h) Dirección de racha Precipitación (mm) Presión (hPa) Tendencia (hPa) Humedad (%)
2019-10-14 23:00:00 20.1 12 Oeste 33 Oeste 0 1013.6 2 76
2019-10-14 22:00:00 20.3 13 Oeste 36 Oeste 0 1013 2.1 77
2019-10-14 21:00:00 20.6 14 Oeste 36 Oeste 0 1012.5 1.8 79
2019-10-14 20:00:00 20.9 18 Oeste 38 Oeste 0 1011.6 1.2 78
2019-10-14 19:00:00 21.8 17 Oeste 39 Oeste 0 1010.9 0.6 72
2019-10-14 18:00:00 22.2 19 Oeste 44 Oeste 0 1010.7 0.6 71
2019-10-14 17:00:00 22.7 18 Oeste 36 Oeste 0 1010.4 0.1 71
2019-10-14 16:00:00 23.5 16 Noroeste 36 Norte 0 1010.3 -0.4 73
2019-10-14 15:00:00 25.8 14 Norte 22 Nordeste 0 1010.1 -1 61
2019-10-14 14:00:00 25.2 15 Nordeste 25 Este 0 1010.3 -0.6 64
2019-10-14 13:00:00 25.7 9 Nordeste 18 Sudeste 0 1010.7 0.7 64
2019-10-14 12:00:00 24.1 6 Oeste 23 Sudoeste 0 1011.1 1.8 71
2019-10-14 11:00:00 23.7 12 Oeste 28 Oeste 0 1010.9 2.8 77
2019-10-14 10:00:00 21.7 10 Oeste 33 Oeste 0 1010 2.1 90
2019-10-14 09:00:00 21.1 13 Oeste 35 Oeste 0 1009.3 2.1 92
2019-10-14 08:00:00 21.1 12 Oeste 33 Sudoeste 0 1008.1 1.6 90
2019-10-14 07:00:00 21 11 Oeste 32 Oeste 0 1007.9 0.9 91
2019-10-14 06:00:00 21 21 Oeste 32 Oeste 0 1007.2 -0.2 90
2019-10-14 05:00:00 20.8 8 Oeste 23 Sudoeste 0 1006.5 -1 90
2019-10-14 04:00:00 20.3 10 Sudoeste 19 Sudoeste 0 1007 -0.8 90
2019-10-14 03:00:00 20.8 6 Sudoeste 9 Sudoeste 0 1007.4 -0.9 89
2019-10-14 02:00:00 21.4 6 Este 12 Sudeste 0 1007.5 -0.9 91
2019-10-14 01:00:00 21 6 Sudeste 10 Este 0 1007.8 -0.6 91
2019-10-14 00:00:00 21.6 4 Este 11 Sudeste 0 1008.3 -0.1 92
2019-10-13 23:00:00 21.8 6 Sudeste 10 Sudeste 0 1008.4 0.1 92
2019-10-13 22:00:00 21.6 6 Sudeste 8 Este 0 1008.4 0.2 87
2019-10-13 21:00:00 22.1 4 Noroeste 9 Norte 0 1008.4 0.4 87
2019-10-13 20:00:00 22.6 2 Nordeste 10 Este 0 1008.3 0 84
2019-10-13 19:00:00 22.9 8 Este 16 Este 0 1008.2 -0.3 85
2019-10-13 18:00:00 23.6 10 Este 18 Nordeste 0 1008 -0.8 82
2019-10-13 17:00:00 23.9 12 Este 21 Este 0 1008.3 -1.6 82
2019-10-13 16:00:00 23.9 14 Este 28 Este 0 1008.5 -2 81
2019-10-13 15:00:00 24.2 15 Este 22 Nordeste 0 1008.8 -1.9 80
2019-10-13 14:00:00 23.8 14 Este 20 Nordeste 0 1009.9 -0.8 81
2019-10-13 13:00:00 23.9 15 Este 21 Nordeste 0 1010.5 0.3 79
2019-10-13 12:00:00 24.6 15 Este 23 Este 0 1010.7 0.6 74
2019-10-13 11:00:00 23.8 16 Este 23 Sudeste 0 1010.7 0.7 78
2019-10-13 10:00:00 22 18 Sudeste 26 Sudeste 0 1010.2 0.4 85
2019-10-13 09:00:00 19.3 5 Norte 8 Norte 0 1010.1 0.5 90
2019-10-13 08:00:00 19.2 3 Norte 6 Norte 0 1010 0.6 89
2019-10-13 07:00:00 19.2 2 Oeste 8 Oeste 0 1009.8 -0.2 89
2019-10-13 06:00:00 19.5 4 Oeste 8 Sudoeste 0 1009.6 -0.8 88
2019-10-13 05:00:00 20.1 5 Noroeste 7 Oeste 0 1009.4 -1.1 88
2019-10-13 04:00:00 20.3 5 Norte 11 Oeste 0 1010 -0.7 89
2019-10-13 03:00:00 20.7 6 Oeste 11 Oeste 0 1010.4 -0.4 89
2019-10-13 02:00:00 21 4 Oeste 17 Sudoeste 0 1010.5 -0.1 88
2019-10-13 01:00:00 21.1 9 Oeste 14 Oeste 0 1010.7 0.5 87
2019-10-13 00:00:00 21.6 3 Oeste 11 Sudoeste 0 1010.8 0.9 87
2019-10-12 23:00:00 22 8 Oeste 12 Oeste 0 1010.6 1.2 86
2019-10-12 22:00:00 22.5 5 Oeste 12 Oeste 0 1010.2 1.4 84
2019-10-12 21:00:00 22.7 4 Oeste 12 Oeste 0 1009.9 1 83
2019-10-12 20:00:00 22.9 4 Oeste 17 Noroeste 0 1009.4 0.6 82
2019-10-12 19:00:00 23.9 6 Noroeste 22 Nordeste 0 1008.8 0 76
2019-10-12 18:00:00 24.2 15 Norte 21 Norte 0 1008.9 -0.3 78
2019-10-12 17:00:00 24.7 14 Norte 21 Norte 0 1008.8 -1.1 75
2019-10-12 16:00:00 24.8 14 Norte 20 Norte 0 1008.8 -2 75
2019-10-12 15:00:00 24.9 14 Nordeste 20 Nordeste 0 1009.2 -1.7 73
2019-10-12 14:00:00 24.4 13 Nordeste 24 Nordeste 0 1009.9 -0.8 75
2019-10-12 13:00:00 25 10 Nordeste 16 Este 0 1010.8 0.4 72
2019-10-12 12:00:00 23.6 9 Nordeste 15 Nordeste 0 1010.9 1.2 81
2019-10-12 11:00:00 24 6 Este 13 Sudeste 0 1010.7 0.7 77
2019-10-12 10:00:00 22.4 4 Sudeste 5 Este 0 1010.4 0.8 89
2019-10-12 09:00:00 20.7 2 Oeste 8 Norte 0 1009.7 -0.1 91
2019-10-12 08:00:00 20.5 3 Oeste 9 Sudoeste 0 1010 -0.1 90
2019-10-12 07:00:00 20.1 5 Sudoeste 6 Oeste 0 1009.6 -0.9 90
2019-10-12 06:00:00 20.1 6 Sudoeste 8 Sudoeste 0 1009.8 -1.4 88
2019-10-12 05:00:00 20.5 5 Noroeste 8 Norte 0 1010.1 -1.2 89
2019-10-12 04:00:00 20.8 4 Sudoeste 9 Sudoeste 0 1010.5 -1.3 88
2019-10-12 03:00:00 21 7 Sudoeste 10 Oeste 0 1011.2 -0.8 88
2019-10-12 02:00:00 21 7 Oeste 10 Sudoeste 0 1011.3 -0.5 88
2019-10-12 01:00:00 21.6 4 Oeste 8 Sudoeste 0 1011.8 0.2 89
2019-10-12 00:00:00 22.3 2 Oeste 7 Sudoeste 0 1012 0.6 88
2019-10-11 23:00:00 22.4 4 Este 8 Este 0 1011.8 0.8 87
2019-10-11 22:00:00 22.6 4 Este 10 Este 0 1011.6 0.5 88
2019-10-11 21:00:00 22.7 6 Este 16 Nordeste 0 1011.4 0.5 86
2019-10-11 20:00:00 22.9 10 Nordeste 19 Nordeste 0 1011 -0.1 87
2019-10-11 19:00:00 23.2 12 Nordeste 22 Nordeste 0 1011.1 -0.5 85
2019-10-11 18:00:00 23.5 15 Nordeste 22 Nordeste 0 1010.9 -1.2 83
2019-10-11 17:00:00 23.8 14 Norte 20 Norte 0 1011.1 -1.7 81
2019-10-11 16:00:00 23.9 13 Nordeste 21 Nordeste 0 1011.6 -2 80
2019-10-11 15:00:00 24.6 13 Este 23 Nordeste 0 1012.1 -1.7 78
2019-10-11 14:00:00 24.3 16 Este 23 Este 0 1012.8 -1.2 79
2019-10-11 13:00:00 23.9 14 Nordeste 21 Este 0 1013.6 0.5 83
2019-10-11 12:00:00 23.4 13 Nordeste 20 Este 0 1013.8 1.3 85
2019-10-11 11:00:00 23.3 11 Este 19 Este 0 1014 2 85
2019-10-11 10:00:00 23 12 Nordeste 19 Nordeste 0 1013.1 1 86
2019-10-11 09:00:00 22.5 14 Este 20 Este 0 1012.5 0.7 87
2019-10-11 08:00:00 22.4 13 Este 21 Este 0 1012 0.4 87
2019-10-11 07:00:00 22.4 13 Este 25 Este 0 1012.1 0.1 86
2019-10-11 06:00:00 22.2 18 Este 27 Este 0 1011.8 -0.3 86
2019-10-11 05:00:00 22.2 15 Este 24 Este 0 1011.6 -0.9 87
2019-10-11 04:00:00 22.2 18 Este 27 Este 0 1012 -0.9 87
2019-10-11 03:00:00 22.3 19 Este 27 Este 0 1012.1 -0.7 86
2019-10-11 02:00:00 22.4 15 Este 25 Este 0 1012.5 -0.6 86
2019-10-11 01:00:00 22.5 14 Este 24 Este 0 1012.9 0.3 87
2019-10-11 00:00:00 22.4 17 Este 26 Este 0 1012.8 0.8 86
2019-10-10 23:00:00 22.5 17 Este 28 Este 0 1013.1 1.5 82
2019-10-10 22:00:00 22.5 16 Este 27 Este 0 1012.6 1 83
2019-10-10 21:00:00 22.7 16 Este 26 Este 0 1012 0.4 82
2019-10-10 20:00:00 22.8 19 Este 27 Este 0 1011.6 0 81
2019-10-10 19:00:00 23.2 17 Este 27 Este 0 1011.6 -0.2 80
2019-10-10 18:00:00 23.5 20 Este 28 Este 0 1011.6 -0.7 78
2019-10-10 17:00:00 24.3 19 Este 26 Nordeste 0 1011.6 -1 74
2019-10-10 16:00:00 23.6 12 Este 21 Este 0 1011.8 -1.3 79
2019-10-10 15:00:00 23.8 13 Este 21 Este 0 1012.3 -1.1 76
2019-10-10 14:00:00 24.2 13 Este 24 Este 0 1012.6 -0.7 74
2019-10-10 13:00:00 23.5 9 Este 18 Este 0 1013.1 0.4 78
2019-10-10 12:00:00 23.9 9 Este 19 Este 0 1013.4 1.6 75
2019-10-10 11:00:00 23.9 10 Este 19 Este 0 1013.3 2 77
2019-10-10 10:00:00 23.1 14 Este 19 Sudeste 0 1012.7 1.6 81
2019-10-10 09:00:00 22.1 12 Este 19 Este 0 1011.8 0.9 85
2019-10-10 08:00:00 21.5 14 Este 19 Este 0 1011.3 0.6 89
2019-10-10 07:00:00 20.6 5 Sudeste 8 Sudeste 0 1011.1 0.6 89
2019-10-10 06:00:00 20.5 4 Sudeste 6 Sur 0 1010.9 0.2 88
2019-10-10 05:00:00 20.7 3 Sudeste 6 Sudoeste 0 1010.7 0.3 88
2019-10-10 04:00:00 20.6 4 Sudoeste 5 Sudoeste 0 1010.5 0 89
2019-10-10 03:00:00 21.1 4 Sudeste 14 Sudeste 0 1010.7 0 89
2019-10-10 02:00:00 21 9 Este 13 Sudeste 0 1010.4 -0.1 90
2019-10-10 01:00:00 21.2 6 Sudeste 10 Sudeste 0 1010.5 0.3 88
2019-10-10 00:00:00 21.4 5 Sudeste 8 Sudeste 0 1010.7 0.7 88
2019-10-09 23:00:00 21.6 5 Sudeste 11 Sudeste 0 1010.5 1 86
2019-10-09 22:00:00 21.9 8 Sudeste 13 Este 0 1010.2 0.8 84
2019-10-09 21:00:00 22.1 9 Sudeste 14 Este 0 1010 0.8 83
2019-10-09 20:00:00 22.3 10 Este 16 Este 0 1009.5 0 82
2019-10-09 19:00:00 23.1 9 Este 17 Este 0 1009.4 0 78
2019-10-09 18:00:00 23.8 9 Este 19 Este 0 1009.2 -0.6 75
2019-10-09 17:00:00 24.1 11 Este 23 Nordeste 0 1009.5 -0.9 73
2019-10-09 16:00:00 24.3 13 Este 22 Este 0 1009.4 -1.5 73
2019-10-09 15:00:00 24.4 12 Este 19 Este 0 1009.8 -1.1 70
2019-10-09 14:00:00 24.5 11 Este 21 Este 0 1010.4 -0.6 69
2019-10-09 13:00:00 24.5 13 Este 19 Este 0 1010.9 0.1 70
2019-10-09 12:00:00 23.6 14 Nordeste 20 Nordeste 0 1010.9 0.8 75
2019-10-09 11:00:00 23.5 9 Este 14 Nordeste 0 1011 1 74
2019-10-09 10:00:00 22 6 Norte 9 Noroeste 0 1010.8 1.1 77
2019-10-09 09:00:00 19.4 3 Noroeste 10 Norte 0 1010.1 0.4 86
2019-10-09 08:00:00 19.5 4 Oeste 8 Sudoeste 0 1010 0.2 89
2019-10-09 07:00:00 19.5 3 Oeste 9 Sudoeste 0 1009.7 -0.3 88
2019-10-09 06:00:00 19.5 4 Oeste 6 Oeste 0 1009.7 -0.8 88
2019-10-09 05:00:00 19.8 5 Sudoeste 10 Sudoeste 0 1009.8 -0.8 86
2019-10-09 04:00:00 19.9 5 Oeste 8 Sudoeste 0 1010 -0.8 83
2019-10-09 03:00:00 20.4 5 Sudoeste 7 Sudoeste 0 1010.5 -0.6 83
2019-10-09 02:00:00 21 4 Sudoeste 5 Sudoeste 0 1010.6 -0.5 80
2019-10-09 01:00:00 21.2 4 Sudeste 8 Sudeste 0 1010.8 -0.1 81
2019-10-09 00:00:00 21.4 6 Sudeste 10 Sudeste 0 1011.1 0.1 80
2019-10-08 23:00:00 21.9 7 Sudeste 12 Sudeste 0 1011.1 0.2 77
2019-10-08 22:00:00 22.2 8 Sudeste 13 Sudeste 0 1010.9 0.2 75
2019-10-08 21:00:00 22.4 8 Sudeste 20 Sudeste 0 1011 -0.1 74
2019-10-08 20:00:00 22.8 10 Este 18 Este 0 1010.9 0 75
2019-10-08 19:00:00 23.6 12 Este 24 Nordeste 0 1010.7 -0.5 72
2019-10-08 18:00:00 24 13 Este 21 Este 0 1011.1 -0.4 72
2019-10-08 17:00:00 24.3 14 Nordeste 25 Nordeste 0 1010.9 -1.2 69
2019-10-08 16:00:00 24.8 16 Nordeste 23 Nordeste 0 1011.2 -1.4 71
2019-10-08 15:00:00 24.9 13 Este 20 Nordeste 0 1011.5 -1.4 72
2019-10-08 14:00:00 24.7 12 Este 25 Este 0 1012.1 -0.8 72
2019-10-08 13:00:00 25.3 14 Este 29 Este 0 1012.6 0.1 67
2019-10-08 12:00:00 24.9 16 Este 23 Sudeste 0 1012.9 1.2 73
2019-10-08 11:00:00 24.2 13 Este 19 Este 0 1012.9 1.6 78
2019-10-08 10:00:00 23.8 7 Sudeste 15 Este 0 1012.5 1.6 79
2019-10-08 09:00:00 21.3 4 Sudeste 9 Sur 0 1011.7 1.4 88
2019-10-08 08:00:00 20.6 4 Sur 8 Sudoeste 0 1011.3 1.1 88
2019-10-08 07:00:00 19.6 5 Sudoeste 6 Sudoeste 0 1010.9 0.6 76
2019-10-08 06:00:00 19.5 3 Este 8 Sudoeste 0 1010.3 -0.1 78
2019-10-08 05:00:00 19.5 6 Norte 7 Norte 0 1010.2 -0.5 77
2019-10-08 04:00:00 20.2 3 Noroeste 9 Norte 0 1010.3 -0.7 77
2019-10-08 03:00:00 20.6 4 Sudeste 6 Norte 0 1010.4 -0.4 68
2019-10-08 02:00:00 21.1 5 Norte 6 Sudeste 0 1010.7 0.2 74
2019-10-08 01:00:00 20.9 5 Sudeste 6 Sur 0 1011 1 73
2019-10-08 00:00:00 21 2 Norte 6 Norte 0 1010.8 1.3 72
2019-10-07 23:00:00 21.7 3 Sudoeste 6 Sudoeste 0 1010.5 1 68
2019-10-07 22:00:00 22.2 4 Sur 8 Sudeste 0 1010 0.8 70
2019-10-07 21:00:00 22.8 6 Sudeste 12 Sudeste 0 1009.5 0.4 71
2019-10-07 20:00:00 23.8 9 Este 13 Nordeste 0 1009.5 0.3 66
2019-10-07 19:00:00 26.1 8 Este 17 Este 0 1009.2 0 56
2019-10-07 18:00:00 27.7 12 Sudeste 15 Sudeste 0 1009.1 -0.5 52
2019-10-07 17:00:00 29.2 8 Sudeste 17 Sudeste 0 1009.2 -1 45
2019-10-07 16:00:00 29.7 10 Este 18 Sur 0 1009.2 -1.2 41
2019-10-07 15:00:00 30.5 9 Noroeste 17 Norte 0 1009.6 -1.2 27
2019-10-07 14:00:00 28.3 10 Este 18 Este 0 1010.2 -0.6 50
2019-10-07 13:00:00 27.7 7 Nordeste 14 Nordeste 0 1010.4 0.1 36
2019-10-07 12:00:00 27.2 7 Este 14 Nordeste 0 1010.8 1 41
2019-10-07 11:00:00 27.4 4 Este 6 Este 0 1010.8 1.4 35
2019-10-07 10:00:00 23.8 2 Sur 5 Sudoeste 0 1010.3 1 48
2019-10-07 09:00:00 20.5 2 Noroeste 9 Sudoeste 0 1009.8 0.3 49
2019-10-07 08:00:00 19.9 4 Oeste 9 Sudoeste 0 1009.4 -0.6 50
2019-10-07 07:00:00 19.6 7 Sudoeste 10 Sudoeste 0 1009.3 -1 53
2019-10-07 06:00:00 19.8 2 Noroeste 8 Sudoeste 0 1009.5 -1.5 54
2019-10-07 05:00:00 19.4 5 Oeste 8 Sudoeste 0 1010 -1.6 57
2019-10-07 04:00:00 19.4 5 Sudoeste 6 Sudoeste 0 1010.3 -1.4 54
2019-10-07 03:00:00 19.6 5 Oeste 9 Oeste 0 1011 -0.7 56
2019-10-07 02:00:00 19 5 Oeste 10 Norte 0 1011.6 0.2 58
2019-10-07 01:00:00 19.5 2 Sudoeste 5 Noroeste 0 1011.7 0.4 56
2019-10-07 00:00:00 19.8 5 Noroeste 9 Sudoeste 0 1011.7 0.4 55
2019-10-06 23:00:00 21.1 6 Sudoeste 8 Sudoeste 0 1011.4 0.3 54
2019-10-06 22:00:00 22 3 Noroeste 6 Norte 0 1011.3 0.3 55
2019-10-06 21:00:00 23.4 5 Oeste 15 Oeste 0 1011.3 0.3 49
2019-10-06 20:00:00 24.3 5 Oeste 18 Oeste 0 1011.1 0.2 48
2019-10-06 19:00:00 26 7 Oeste 22 Noroeste 0 1011 -0.2 42
2019-10-06 18:00:00 26.5 8 Noroeste 21 Oeste 0 1011 -0.5 40
2019-10-06 17:00:00 27.5 9 Noroeste 21 Noroeste 0 1010.9 -1 38
2019-10-06 16:00:00 28.4 8 Oeste 16 Oeste 0 1011.2 -1.3 40
2019-10-06 15:00:00 26.1 12 Este 18 Oeste 0 1011.5 -1.2 57
2019-10-06 14:00:00 27.9 9 Norte 20 Oeste 0 1011.9 -0.9 40
2019-10-06 13:00:00 27.4 8 Norte 19 Noroeste 0 1012.5 0.6 43
2019-10-06 12:00:00 26.4 8 Noroeste 18 Noroeste 0 1012.7 1.6 44
2019-10-06 11:00:00 25.9 6 Noroeste 14 Noroeste 0 1012.8 2.1 50
2019-10-06 10:00:00 24 5 Sudeste 16 Oeste 0 1011.9 1.4 57
2019-10-06 09:00:00 22.1 6 Oeste 12 Oeste 0 1011.1 0.5 61
2019-10-06 08:00:00 19.6 6 Oeste 17 Oeste 0 1010.7 0.5 68
2019-10-06 07:00:00 20.1 5 Oeste 11 Sudoeste 0 1010.5 0 63
2019-10-06 06:00:00 19.1 4 Noroeste 11 Oeste 0 1010.6 -0.1 66
2019-10-06 05:00:00 18.5 4 Noroeste 9 Noroeste 0 1010.2 -0.3 69
2019-10-06 04:00:00 19.3 5 Oeste 9 Sudoeste 0 1010.5 0 77
2019-10-06 03:00:00 19.7 5 Oeste 8 Sudoeste 0 1010.7 0.2 76
2019-10-06 02:00:00 19.9 3 Oeste 7 Noroeste 0 1010.5 -0.1 72
2019-10-06 01:00:00 20.4 3 Oeste 9 Noroeste 0 1010.5 0.2 65
2019-10-06 00:00:00 20.9 3 Sudoeste 5 Sudoeste 0 1010.5 0.7 66
2019-10-05 23:00:00 21.4 5 Sudoeste 8 Sudoeste 0 1010.6 1.1 66
2019-10-05 22:00:00 22.1 4 Sudeste 10 Sudeste 0 1010.3 1.3 81
2019-10-05 21:00:00 22.7 7 Sudeste 13 Sudeste 0 1009.8 0.8 78
2019-10-05 20:00:00 24.6 3 Oeste 17 Oeste 0 1009.5 0.7 49
2019-10-05 19:00:00 26.1 7 Oeste 20 Oeste 0 1009 0 46
2019-10-05 18:00:00 25.9 8 Oeste 26 Noroeste 0 1009 -0.3 48
2019-10-05 17:00:00 26.5 10 Noroeste 27 Oeste 0 1008.8 -1.2 46
2019-10-05 16:00:00 27.6 9 Oeste 24 Noroeste 0 1009 -1.2 43
2019-10-05 15:00:00 28.4 8 Oeste 22 Oeste 0 1009.3 -1 41
2019-10-05 14:00:00 27.5 8 Noroeste 22 Nordeste 0 1010 -0.4 39
2019-10-05 13:00:00 27.7 9 Nordeste 17 Norte 0 1010.2 0.3 37
2019-10-05 12:00:00 27.2 6 Noroeste 15 Norte 0 1010.3 1 37
2019-10-05 11:00:00 26.1 6 Oeste 15 Oeste 0 1010.4 1.7 38
2019-10-05 10:00:00 23.8 5 Noroeste 15 Sudoeste 0 1009.9 1.4 46
2019-10-05 09:00:00 19.9 6 Noroeste 8 Noroeste 0 1009.3 0.8 46
2019-10-05 08:00:00 19 5 Oeste 9 Sudoeste 0 1008.7 0.1 46
2019-10-05 07:00:00 18.7 5 Oeste 7 Oeste 0 1008.5 -0.2 49
2019-10-05 06:00:00 18.9 4 Oeste 5 Noroeste 0 1008.5 -0.5 50
2019-10-05 05:00:00 19 3 Oeste 8 Sudoeste 0 1008.6 -0.7 50
2019-10-05 04:00:00 18.9 2 Noroeste 9 Sudoeste 0 1008.7 -1.1 50
2019-10-05 03:00:00 20.3 5 Oeste 9 Noroeste 0 1009 -1 45
2019-10-05 02:00:00 20.1 4 Noroeste 7 Sudoeste 0 1009.3 -0.8 47
2019-10-05 01:00:00 19.8 5 Noroeste 8 Oeste 0 1009.8 -0.3 55
2019-10-05 00:00:00 20.6 2 Oeste 8 Sudoeste 0 1010 0.2 67
2019-10-04 23:00:00 21.4 2 Sudoeste 8 Sudoeste 0 1010.1 0.5 68
2019-10-04 22:00:00 21.9 3 Sudeste 9 Sudeste 0 1010.1 0.8 73
2019-10-04 21:00:00 22.7 3 Sudeste 13 Sudoeste 0 1009.8 0.7 67
2019-10-04 20:00:00 23.6 3 Este 10 Este 0 1009.6 0.2 63
2019-10-04 19:00:00 25.3 6 Este 13 Este 0 1009.3 -0.6 58
2019-10-04 18:00:00 25.8 8 Nordeste 15 Nordeste 0 1009.1 -1.4 47
2019-10-04 17:00:00 26.4 12 Nordeste 17 Este 0 1009.4 -1.7 42
2019-10-04 16:00:00 26.9 11 Este 17 Nordeste 0 1009.9 -1.7 42
2019-10-04 15:00:00 27.1 12 Nordeste 19 Nordeste 0 1010.5 -1.3 36
2019-10-04 14:00:00 27.4 11 Nordeste 21 Este 0 1011.1 -0.9 31
2019-10-04 13:00:00 27.4 11 Este 18 Este 0 1011.6 0 27
2019-10-04 12:00:00 27.1 9 Este 14 Este 0 1011.8 0.5 34
2019-10-04 11:00:00 25.8 6 Sudeste 12 Sudeste 0 1012 1.2 38
2019-10-04 10:00:00 23.4 6 Sudeste 10 Noroeste 0 1011.6 1 38
2019-10-04 09:00:00 18.4 3 Oeste 9 Oeste 0 1011.3 0.6 45
2019-10-04 08:00:00 18.6 8 Sudoeste 9 Sudoeste 0 1010.8 0 42
2019-10-04 07:00:00 18.4 5 Sudoeste 8 Noroeste 0 1010.6 -0.4 44
2019-10-04 06:00:00 19.1 3 Oeste 7 Sudoeste 0 1010.7 -1 56
2019-10-04 05:00:00 20.1 3 Sudoeste 9 Sudeste 0 1010.8 -0.8 56
2019-10-04 04:00:00 21 4 Sudoeste 13 Oeste 0 1011 -0.8 51
2019-10-04 03:00:00 22.3 4 Oeste 25 Oeste 0 1011.7 -0.4 47
2019-10-04 02:00:00 22.4 16 Oeste 28 Oeste 0 1011.6 -0.3 47
2019-10-04 01:00:00 22.4 18 Oeste 28 Oeste 0 1011.8 0.1 49
2019-10-04 00:00:00 22.3 10 Oeste 19 Oeste 0 1012.1 0.8 50
2019-10-03 23:00:00 22.9 11 Oeste 19 Oeste 0 1011.9 1 45
2019-10-03 22:00:00 23.3 5 Oeste 21 Sudoeste 0 1011.7 0.5 42
2019-10-03 21:00:00 23.9 8 Oeste 27 Oeste 0 1011.3 0.2 38
2019-10-03 20:00:00 24.3 15 Oeste 26 Oeste 0 1010.9 -0.3 38
2019-10-03 19:00:00 24.6 11 Oeste 37 Oeste 0 1011.2 -0.4 44
2019-10-03 18:00:00 25.3 21 Oeste 39 Oeste 0 1011.1 -1.1 44
2019-10-03 17:00:00 26.3 19 Oeste 36 Sudoeste 0 1011.2 -1.5 41
2019-10-03 16:00:00 26.5 17 Oeste 33 Oeste 0 1011.6 -1.3 42
2019-10-03 15:00:00 26.4 14 Oeste 37 Oeste 0 1012.2 -0.8 40
2019-10-03 14:00:00 26 15 Oeste 42 Oeste 0 1012.7 0.1 45
2019-10-03 13:00:00 25.3 17 Oeste 44 Oeste 0 1012.9 1 53
2019-10-03 12:00:00 25.3 17 Oeste 46 Oeste 0 1013 1.8 47
2019-10-03 11:00:00 24.1 23 Oeste 45 Oeste 0 1012.6 1.7 50
2019-10-03 10:00:00 22.7 23 Oeste 41 Oeste 0 1011.9 2 56
2019-10-03 09:00:00 21.5 21 Oeste 39 Oeste 0 1011.2 1.3 60
2019-10-03 08:00:00 20.6 21 Oeste 41 Oeste 0 1010.9 1 65
2019-10-03 07:00:00 20.8 24 Oeste 45 Oeste 0 1009.9 -0.5 67
2019-10-03 06:00:00 21.2 16 Oeste 43 Oeste 0 1009.9 -0.8 62
2019-10-03 05:00:00 21.7 12 Oeste 31 Sudoeste 0 1009.9 -1 56
2019-10-03 04:00:00 22.1 6 Oeste 20 Oeste 0 1010.4 -0.5 47
2019-10-03 03:00:00 22.1 6 Oeste 22 Oeste 0 1010.7 0 47
2019-10-03 02:00:00 22 8 Oeste 27 Oeste 0 1010.9 0.3 56
2019-10-03 01:00:00 22.7 13 Oeste 32 Oeste 0 1010.9 1.4 50
2019-10-03 00:00:00 23.4 19 Oeste 36 Oeste 0 1010.7 1.9 47
2019-10-02 23:00:00 23.8 21 Oeste 34 Oeste 0 1010.6 1.9 49
2019-10-02 22:00:00 24 19 Oeste 51 Oeste 0 1009.5 0.8 52
2019-10-02 21:00:00 23.9 27 Oeste 51 Oeste 0 1008.8 -0.1 56
2019-10-02 20:00:00 23.2 14 Oeste 44 Oeste 0 1008.7 -0.1 64
2019-10-02 19:00:00 23.2 25 Oeste 44 Oeste 0 1008.7 0.4 66
2019-10-02 18:00:00 25 22 Oeste 43 Oeste 0 1008.9 0.3 61
2019-10-02 17:00:00 26.3 24 Oeste 50 Oeste 0 1008.8 -0.5 50
2019-10-02 16:00:00 27.6 27 Oeste 57 Oeste 0 1008.3 -1.7 43
2019-10-02 15:00:00 26.7 19 Oeste 45 Oeste 0 1008.6 -1.7 51
2019-10-02 14:00:00 27.1 12 Oeste 37 Oeste 0 1009.3 0 50
2019-10-02 13:00:00 26.3 15 Oeste 48 Oeste 0 1010 1 53
2019-10-02 12:00:00 26.4 15 Oeste 58 Oeste 0 1010.3 0.9 46
2019-10-02 11:00:00 26.1 38 Oeste 61 Oeste 0 1009.3 0.1 43
2019-10-02 10:00:00 25.1 35 Oeste 58 Oeste 0 1009 0.3 48
2019-10-02 09:00:00 23.6 17 Oeste 35 Oeste 0 1009.4 0.7 58
2019-10-02 08:00:00 22.6 15 Oeste 39 Oeste 0 1009.2 0.7 65
2019-10-02 07:00:00 23 18 Oeste 46 Oeste 0 1008.7 0.1 64
2019-10-02 06:00:00 23.9 17 Oeste 33 Oeste 0 1008.7 -0.3 57
2019-10-02 05:00:00 24.2 16 Oeste 39 Oeste 0 1008.5 -0.8 53
2019-10-02 04:00:00 24.3 12 Oeste 37 Oeste 0 1008.6 -0.8 54
2019-10-02 03:00:00 24.5 24 Oeste 47 Oeste 0 1009 0.1 53
2019-10-02 02:00:00 24.2 16 Oeste 46 Oeste 0 1009.3 0.6 55
2019-10-02 01:00:00 24.8 21 Oeste 54 Oeste 0 1009.4 1.1 49
2019-10-02 00:00:00 25.7 25 Oeste 48 Sudoeste 0 1008.9 1.1 39
2019-10-01 23:00:00 25.6 13 Oeste 41 Oeste 0 1008.7 1 43
2019-10-01 22:00:00 26.3 17 Oeste 33 Oeste 0 1008.3 0.8 33
2019-10-01 21:00:00 26.5 15 Oeste 37 Oeste 0 1007.8 0.7 33
2019-10-01 20:00:00 26.9 18 Oeste 39 Oeste 0 1007.7 0.6 35
2019-10-01 19:00:00 27.6 14 Oeste 44 Oeste 0 1007.5 0 37
2019-10-01 18:00:00 29.1 19 Oeste 54 Oeste 0 1007.1 -0.6 28
2019-10-01 17:00:00 30.7 24 Oeste 48 Oeste 0 1007.1 -1.2 19
2019-10-01 16:00:00 31.6 23 Oeste 43 Oeste 0 1007.5 -1.1 15
2019-10-01 15:00:00 30.8 23 Oeste 44 Oeste 0 1007.7 -1 19
2019-10-01 14:00:00 30.3 19 Oeste 43 Oeste 0 1008.3 -0.4 27
2019-10-01 13:00:00 29.5 17 Oeste 40 Oeste 0 1008.6 0.5 33
2019-10-01 12:00:00 28.9 11 Oeste 26 Oeste 0 1008.7 1.1 42
2019-10-01 11:00:00 27.6 8 Oeste 25 Oeste 0 1008.7 1.7 49
2019-10-01 10:00:00 25.1 8 Noroeste 21 Noroeste 0 1008.1 1.3 63
2019-10-01 09:00:00 23.3 9 Noroeste 18 Noroeste 0 1007.6 1 76
2019-10-01 08:00:00 24.1 10 Oeste 27 Oeste 0 1007 0.2 52
2019-10-01 07:00:00 21.9 13 Noroeste 19 Noroeste 0 1006.8 -0.3 64
2019-10-01 06:00:00 20.7 5 Oeste 12 Oeste 0 1006.6 -1.5 82
2019-10-01 05:00:00 20.2 6 Noroeste 9 Noroeste 0 1006.8 -1.6 91
2019-10-01 04:00:00 20.8 4 Oeste 10 Sudoeste 0 1007.1 -1.5 87
2019-10-01 03:00:00 20.9 4 Sudoeste 8 Sudoeste 0 1008.1 -0.7 83
2019-10-01 02:00:00 21.4 6 Oeste 9 Sudoeste 0 1008.4 -0.6 79
2019-10-01 01:00:00 22 3 Oeste 8 Noroeste 0 1008.6 -0.5 83
2019-10-01 00:00:00 22.3 3 Oeste 7 Norte 0 1008.8 -0.3 81
2019-09-30 23:00:00 22.9 4 Noroeste 7 Noroeste 0 1009 0 83
2019-09-30 22:00:00 23.4 2 Sudeste 7 Sur 0 1009.1 0.3 84
2019-09-30 21:00:00 23.6 5 Sudeste 7 Sudeste 0 1009.1 0.1 84
2019-09-30 20:00:00 24.1 4 Este 10 Este 0 1009 -0.4 81
2019-09-30 19:00:00 24.7 6 Este 14 Este 0 1008.8 -0.9 76
2019-09-30 18:00:00 25.4 12 Este 15 Este 0 1009 -1.1 73
2019-09-30 17:00:00 25.9 10 Este 16 Nordeste 0 1009.4 -1.6 72
2019-09-30 16:00:00 26.3 10 Este 15 Este 0 1009.7 -1.6 72
2019-09-30 15:00:00 26.4 10 Este 17 Este 0 1010.1 -1.5 72
2019-09-30 14:00:00 25.6 9 Este 17 Este 0 1011 -0.7 74
2019-09-30 13:00:00 25.5 11 Este 18 Este 0 1011.3 -0.2 73
2019-09-30 12:00:00 27.1 9 Noroeste 16 Norte 0 1011.6 0.6 54
2019-09-30 11:00:00 24.7 4 Sudeste 10 Oeste 0 1011.7 0.9 74
2019-09-30 10:00:00 22.5 4 Oeste 13 Oeste 0 1011.5 1 82
2019-09-30 09:00:00 20.6 3 Oeste 14 Oeste 0 1011 0.6 92
2019-09-30 08:00:00 20.7 4 Oeste 13 Noroeste 0 1010.8 0.4 92
2019-09-30 07:00:00 20.6 4 Noroeste 12 Oeste 0 1010.5 -0.3 96
2019-09-30 06:00:00 20.9 6 Oeste 12 Oeste 0 1010.4 -0.7 95
2019-09-30 05:00:00 21.3 4 Oeste 10 Noroeste 0 1010.4 -0.7 94
2019-09-30 04:00:00 20.9 4 Oeste 7 Sudoeste 0 1010.8 -0.5 91
2019-09-30 03:00:00 21 4 Oeste 8 Sudoeste 0 1011.1 -0.5 90
2019-09-30 02:00:00 21.2 6 Sudoeste 9 Noroeste 0 1011.1 -0.4 88
2019-09-30 01:00:00 21.6 4 Noroeste 7 Oeste 0 1011.3 -0.2 88
2019-09-30 00:00:00 22.3 3 Oeste 10 Noroeste 0 1011.6 0.5 87
2019-09-29 23:00:00 22.5 3 Norte 11 Noroeste 0 1011.5 0.9 86
2019-09-29 22:00:00 22.8 4 Noroeste 13 Oeste 0 1011.5 0.9 84
2019-09-29 21:00:00 23.2 6 Oeste 19 Noroeste 0 1011.1 0.4 82
2019-09-29 20:00:00 23.7 8 Noroeste 22 Noroeste 0 1010.6 -0.3 81
2019-09-29 19:00:00 24.8 9 Noroeste 18 Noroeste 0 1010.6 -0.5 77
2019-09-29 18:00:00 26.2 8 Noroeste 18 Oeste 0 1010.7 -0.9 73
2019-09-29 17:00:00 27 11 Noroeste 21 Norte 0 1010.9 -1.5 70
2019-09-29 16:00:00 26.7 15 Nordeste 21 Nordeste 0 1011.1 -1.5 70
2019-09-29 15:00:00 26.3 14 Nordeste 20 Nordeste 0 1011.6 -1.1 68
2019-09-29 14:00:00 26.2 11 Nordeste 18 Este 0 1012.4 -0.4 70
2019-09-29 13:00:00 25.7 13 Nordeste 22 Este 0 1012.6 0.2 71
2019-09-29 12:00:00 26.3 13 Este 23 Sudeste 0 1012.7 0.6 69
2019-09-29 11:00:00 25.2 10 Sudeste 19 Sudeste 0 1012.8 1.2 73
2019-09-29 10:00:00 23.3 10 Sudeste 16 Sudeste 0 1012.4 1.1 82
2019-09-29 09:00:00 21.6 2 Norte 6 Norte 0 1012.1 0.8 90
2019-09-29 08:00:00 21.1 4 Sudoeste 7 Sur 0 1011.6 0.3 90
2019-09-29 07:00:00 21 4 Sur 6 Sudeste 0 1011.3 -0.4 90
2019-09-29 06:00:00 20.4 4 Sudoeste 8 Nordeste 0 1011.3 -0.6 89
2019-09-29 05:00:00 21.3 2 Sur 5 Sudeste 0 1011.3 -0.8 90
2019-09-29 04:00:00 21.2 3 Sudeste 9 Sudoeste 0 1011.7 -1 89
2019-09-29 03:00:00 21.5 7 Sudoeste 9 Oeste 0 1011.9 -0.7 87
2019-09-29 02:00:00 22.5 5 Este 13 Este 0 1012.1 -0.5 89
2019-09-29 01:00:00 22.9 9 Este 14 Este 0 1012.7 0.3 88
2019-09-29 00:00:00 22.8 8 Este 12 Este 0 1012.6 0.8 88
2019-09-28 23:00:00 23.1 8 Este 14 Este 0 1012.6 0.9 87
2019-09-28 22:00:00 23.3 5 Este 12 Sudeste 0 1012.4 0.8 84
2019-09-28 21:00:00 23.7 8 Este 14 Este 0 1011.8 0.2 83
2019-09-28 20:00:00 24 10 Este 14 Nordeste 0 1011.7 0.1 82
2019-09-28 19:00:00 24.5 10 Este 18 Nordeste 0 1011.6 0 82
2019-09-28 18:00:00 25 13 Nordeste 21 Nordeste 0 1011.6 -0.5 79
2019-09-28 17:00:00 25.9 13 Nordeste 20 Nordeste 0 1011.6 -1.2 71
2019-09-28 16:00:00 26.4 13 Nordeste 20 Nordeste 0 1011.6 -1.7 68
2019-09-28 15:00:00 26.4 12 Este 19 Nordeste 0 1012.1 -1.3 72
2019-09-28 14:00:00 26.4 9 Este 16 Este 0 1012.8 -0.6 69
2019-09-28 13:00:00 25.7 9 Este 16 Este 0 1013.3 0.5 73
2019-09-28 12:00:00 24.9 11 Este 16 Este 0 1013.4 1.1 77
2019-09-28 11:00:00 24.4 10 Este 15 Este 0 1013.4 1.8 79
2019-09-28 10:00:00 23 6 Sudeste 12 Sur 0 1012.8 1.6 85
2019-09-28 09:00:00 22.4 4 Sudeste 12 Sur 0 1012.3 1.3 88
2019-09-28 08:00:00 22 4 Sudeste 9 Sudoeste 0 1011.6 0.5 89
2019-09-28 07:00:00 22.2 3 Este 7 Sur 0 1011.2 -0.1 89
2019-09-28 06:00:00 22.1 3 Sudeste 7 Sur 0 1011 -0.8 89
2019-09-28 05:00:00 21.7 3 Sudoeste 6 Sudoeste 0 1011.1 -1.2 86
2019-09-28 04:00:00 22.3 3 Este 5 Sur 0 1011.3 -1.1 89
2019-09-28 03:00:00 22.3 3 Sudeste 6 Sudoeste 0 1011.8 -1 89
2019-09-28 02:00:00 21.6 2 Oeste 6 Oeste 0 1012.3 -0.4 86
2019-09-28 01:00:00 21.8 4 Sudoeste 9 Sudoeste 0 1012.4 0.2 86
2019-09-28 00:00:00 22.6 4 Sudeste 19 Sudeste 0 1012.8 1 88
2019-09-27 23:00:00 22.7 12 Sudeste 18 Sudeste 0 1012.7 1.5 89
2019-09-27 22:00:00 22.8 9 Sudeste 14 Sudeste 0 1012.2 1.3 87
2019-09-27 21:00:00 22.9 4 Oeste 13 Noroeste 0 1011.8 1.2 84
2019-09-27 20:00:00 23.4 5 Oeste 21 Noroeste 0 1011.2 0.4 81
2019-09-27 19:00:00 24.7 8 Noroeste 19 Noroeste 0 1010.9 -0.2 76
2019-09-27 18:00:00 25.3 11 Nordeste 18 Norte 0 1010.6 -1.3 74
2019-09-27 17:00:00 25.8 12 Norte 18 Nordeste 0 1010.8 -1.8 70
2019-09-27 16:00:00 25.5 12 Nordeste 20 Nordeste 0 1011.1 -1.7 71
2019-09-27 15:00:00 25.7 13 Nordeste 19 Nordeste 0 1011.9 -1.3 70
2019-09-27 14:00:00 25.7 13 Este 19 Este 0 1012.6 -0.6 70
2019-09-27 13:00:00 25.3 11 Nordeste 18 Nordeste 0 1012.8 0.1 74
2019-09-27 12:00:00 25.8 5 Noroeste 16 Norte 0 1013.2 0.9 67
2019-09-27 11:00:00 25 6 Noroeste 13 Noroeste 0 1013.2 1.3 73
2019-09-27 10:00:00 23.4 5 Noroeste 10 Noroeste 0 1012.7 1.1 80
2019-09-27 09:00:00 21.7 2 Oeste 9 Sudoeste 0 1012.3 0.9 87
2019-09-27 08:00:00 20.5 6 Sudoeste 9 Sudoeste 0 1011.9 0.2 84
2019-09-27 07:00:00 20.9 4 Oeste 8 Noroeste 0 1011.6 -0.4 88
2019-09-27 06:00:00 21 3 Sudoeste 7 Sudoeste 0 1011.4 -1 86
2019-09-27 05:00:00 21.3 3 Noroeste 6 Oeste 0 1011.7 -0.8 87
2019-09-27 04:00:00 21.4 3 Oeste 7 Oeste 0 1012 -0.6 82
2019-09-27 03:00:00 21.4 4 Oeste 8 Sudoeste 0 1012.4 -0.2 80
2019-09-27 02:00:00 21.8 4 Sudoeste 7 Noroeste 0 1012.5 0 79
2019-09-27 01:00:00 22 5 Noroeste 7 Noroeste 0 1012.6 0.3 81
2019-09-27 00:00:00 22.5 3 Sur 6 Sudoeste 0 1012.6 0.8 76
2019-09-26 23:00:00 23.1 0 Calma 7 Este 0 1012.5 1.2 79
2019-09-26 22:00:00 23.5 6 Sudeste 9 Este 0 1012.3 1.2 81
2019-09-26 21:00:00 23.8 4 Sudeste 8 Este 0 1011.8 0.9 71
2019-09-26 20:00:00 24.5 6 Este 12 Este 0 1011.3 0.4 67
2019-09-26 19:00:00 25.4 9 Nordeste 16 Este 0 1011.1 -0.1 58
2019-09-26 18:00:00 25.9 12 Nordeste 18 Nordeste 0 1010.9 -0.6 58
2019-09-26 17:00:00 26.6 10 Nordeste 17 Nordeste 0 1010.9 -1.2 58
2019-09-26 16:00:00 26.9 12 Nordeste 19 Nordeste 0 1011.2 -1.3 53
2019-09-26 15:00:00 27.1 9 Nordeste 18 Este 0 1011.5 -1.1 53
2019-09-26 14:00:00 26.5 10 Nordeste 20 Este 0 1012.1 -0.5 58
2019-09-26 13:00:00 26.6 13 Este 19 Este 0 1012.5 0.5 57
2019-09-26 12:00:00 28.4 8 Este 14 Sudeste 0 1012.6 1.4 46
2019-09-26 11:00:00 28.3 5 Sudeste 10 Este 0 1012.6 1.8 45
2019-09-26 10:00:00 25.8 5 Norte 11 Oeste 0 1012 1.6 38
2019-09-26 09:00:00 24.1 7 Oeste 13 Oeste 0 1011.2 1.1 41
2019-09-26 08:00:00 22.2 5 Oeste 10 Oeste 0 1010.8 0.9 45
2019-09-26 07:00:00 21.2 4 Oeste 12 Norte 0 1010.4 0.5 48
2019-09-26 06:00:00 22.6 6 Oeste 9 Oeste 0 1010.1 0.1 47
2019-09-26 05:00:00 23.9 8 Oeste 14 Sudoeste 0 1009.9 -0.3 42
2019-09-26 04:00:00 23 0 Calma 8 Oeste 0 1009.9 -0.5 56
2019-09-26 03:00:00 23.6 2 Este 9 Sudoeste 0 1010 -0.4 55
2019-09-26 02:00:00 24.1 4 Sudoeste 11 Oeste 0 1010.2 0.1 48
2019-09-26 01:00:00 24.2 3 Oeste 8 Sudoeste 0 1010.4 0.8 51
2019-09-26 00:00:00 25 2 Sudeste 9 Oeste 0 1010.4 1.2 50
2019-09-25 23:00:00 26.5 6 Sur 19 Sur 0 1010.1 1.2 54
2019-09-25 22:00:00 26.9 9 Sudoeste 23 Oeste 0 1009.6 1.1 38
2019-09-25 21:00:00 26.9 15 Sudoeste 23 Oeste 0 1009.2 0.6 34
2019-09-25 20:00:00 27.2 15 Oeste 39 Oeste 0 1008.9 0 35
2019-09-25 19:00:00 28.3 18 Oeste 39 Oeste 0 1008.5 -0.8 42
2019-09-25 18:00:00 28.8 11 Oeste 35 Oeste 0 1008.6 -1.1 45
2019-09-25 17:00:00 29.7 14 Oeste 31 Oeste 0 1008.9 -1.6 46
2019-09-25 16:00:00 28.9 11 Oeste 30 Norte 0 1009.3 -1.4 50
2019-09-25 15:00:00 30.4 8 Oeste 32 Oeste 0 1009.7 -1.3 44
2019-09-25 14:00:00 29.5 11 Oeste 35 Oeste 0 1010.5 -0.4 45
2019-09-25 13:00:00 30.5 14 Oeste 31 Oeste 0 1010.7 0.2 37
2019-09-25 12:00:00 30.2 12 Noroeste 27 Oeste 0 1011 0.9 34
2019-09-25 11:00:00 29.7 15 Oeste 29 Oeste 0 1010.9 1.3 33
2019-09-25 10:00:00 28 13 Oeste 26 Oeste 0 1010.5 1.1 36
2019-09-25 09:00:00 26.9 12 Oeste 21 Oeste 0 1010.1 0.6 35
2019-09-25 08:00:00 25.9 8 Sudoeste 24 Sudoeste 0 1009.6 0.3 43
2019-09-25 07:00:00 25.8 15 Oeste 27 Oeste 0 1009.4 -0.2 36
2019-09-25 06:00:00 25.7 13 Oeste 26 Sudoeste 0 1009.5 -0.6 37
2019-09-25 05:00:00 25.8 14 Oeste 31 Oeste 0 1009.3 -0.9 39
2019-09-25 04:00:00 25.3 17 Oeste 27 Oeste 0 1009.6 -0.9 42
2019-09-25 03:00:00 24.3 12 Oeste 24 Oeste 0 1010.1 -0.5 55
2019-09-25 02:00:00 21.6 3 Noroeste 6 Noroeste 0 1010.2 -0.6 77
2019-09-25 01:00:00 21.6 4 Oeste 8 Oeste 0 1010.5 -0.4 82
2019-09-25 00:00:00 21.9 3 Norte 6 Norte 0 1010.6 -0.2 82
2019-09-24 23:00:00 22.4 5 Sudoeste 7 Sudeste 0 1010.8 0.1 80
2019-09-24 22:00:00 22.7 5 Sudeste 9 Sudeste 0 1010.9 0.2 79
2019-09-24 21:00:00 23.2 6 Sudeste 10 Sudeste 0 1010.8 0.2 81
2019-09-24 20:00:00 24.1 7 Sudeste 15 Este 0 1010.7 -0.3 78
2019-09-24 19:00:00 26.6 10 Sudeste 20 Sudeste 0 1010.7 -0.8 70
2019-09-24 18:00:00 27.8 10 Noroeste 25 Noroeste 0 1010.6 -1.5 50
2019-09-24 17:00:00 27 10 Noroeste 25 Noroeste 0 1011 -1.6 54
2019-09-24 16:00:00 27.3 11 Noroeste 24 Noroeste 0 1011.5 -1.8 55
2019-09-24 15:00:00 28 8 Oeste 22 Nordeste 0 1012.1 -1.4 54
2019-09-24 14:00:00 26.5 16 Nordeste 22 Nordeste 0 1012.6 -1 51
2019-09-24 13:00:00 26.8 9 Nordeste 14 Este 0 1013.3 0.1 47
2019-09-24 12:00:00 26.3 8 Este 14 Este 0 1013.5 0.5 51
2019-09-24 11:00:00 25.3 7 Este 12 Este 0 1013.6 1 59
2019-09-24 10:00:00 22.9 4 Norte 8 Norte 0 1013.2 0.7 72
2019-09-24 09:00:00 20.5 3 Sudoeste 7 Noroeste 0 1013 0.8 78
2019-09-24 08:00:00 19.5 3 Oeste 8 Sudoeste 0 1012.6 0.2 81
2019-09-24 07:00:00 19.7 8 Sudoeste 9 Sudoeste 0 1012.5 -0.2 80
2019-09-24 06:00:00 19.8 7 Sudoeste 9 Sudoeste 0 1012.2 -0.8 76
2019-09-24 05:00:00 19.9 4 Oeste 9 Sudoeste 0 1012.4 -0.8 78
2019-09-24 04:00:00 20.2 4 Noroeste 9 Noroeste 0 1012.7 -0.6 80
2019-09-24 03:00:00 20.3 4 Oeste 6 Sudoeste 0 1013 -0.6 76
2019-09-24 02:00:00 21.1 4 Norte 5 Sudoeste 0 1013.2 -0.7 80
2019-09-24 01:00:00 20.9 4 Sudoeste 6 Sudoeste 0 1013.3 -0.6 73
2019-09-24 00:00:00 21.8 2 Nordeste 5 Sudeste 0 1013.6 0.3 79
2019-09-23 23:00:00 22 3 Sudeste 7 Este 0 1013.9 0.9 79
2019-09-23 22:00:00 22.3 4 Sudeste 8 Este 0 1013.9 1.4 75
2019-09-23 21:00:00 22.7 4 Sudeste 9 Este 0 1013.3 1.2 75
2019-09-23 20:00:00 23.4 6 Este 15 Nordeste 0 1013 0.9 68
2019-09-23 19:00:00 24.5 12 Norte 21 Nordeste 0 1012.5 0.4 62
2019-09-23 18:00:00 25.6 16 Nordeste 22 Nordeste 0 1012.1 -0.2 61
2019-09-23 17:00:00 26.3 17 Nordeste 25 Nordeste 0 1012.1 -0.4 52
2019-09-23 16:00:00 26.5 13 Nordeste 19 Nordeste 0 1012.1 -1.2 56
2019-09-23 15:00:00 26.8 12 Nordeste 19 Este 0 1012.3 -1.4 51
2019-09-23 14:00:00 26.6 12 Este 19 Nordeste 0 1012.5 -1.5 56
2019-09-23 13:00:00 27.9 8 Este 17 Este 0 1013.3 -0.1 49
2019-09-23 12:00:00 26.1 8 Noroeste 15 Noroeste 0 1013.7 1 48
2019-09-23 11:00:00 24.5 6 Oeste 19 Oeste 0 1014 1.8 58
2019-09-23 10:00:00 23.2 10 Oeste 22 Sudoeste 0 1013.4 1.7 65
2019-09-23 09:00:00 21.5 6 Oeste 15 Oeste 0 1012.7 1.4 67
2019-09-23 08:00:00 20.9 10 Oeste 17 Oeste 0 1012.2 0.9 68
2019-09-23 07:00:00 20.9 4 Noroeste 19 Sudoeste 0 1011.7 0.3 66
2019-09-23 06:00:00 21.3 10 Oeste 26 Oeste 0 1011.3 -0.5 67
2019-09-23 05:00:00 21.3 17 Sudoeste 28 Sudoeste 0 1011.3 -0.3 71
2019-09-23 04:00:00 21.6 16 Oeste 27 Sudoeste 0 1011.4 -0.4 71
2019-09-23 03:00:00 21.8 15 Oeste 27 Sudoeste 0 1011.8 0.1 71
2019-09-23 02:00:00 21.9 13 Oeste 28 Oeste 0 1011.6 0 76
2019-09-23 01:00:00 22.3 12 Oeste 25 Oeste 0 1011.8 0.8 77
2019-09-23 00:00:00 22.4 14 Oeste 22 Oeste 0 1011.7 1.2 77
2019-09-22 23:00:00 22.9 13 Oeste 27 Sudoeste 0 1011.6 1.7 72
2019-09-22 22:00:00 23.2 19 Sudoeste 35 Oeste 0 1011 1 68
2019-09-22 21:00:00 23.1 20 Sudoeste 43 Oeste 0 1010.5 0.8 71
2019-09-22 20:00:00 23.4 26 Oeste 46 Oeste 0 1009.9 0.7 72
2019-09-22 19:00:00 24.3 19 Oeste 41 Oeste 0 1010 0.8 70
2019-09-22 18:00:00 25.4 9 Oeste 33 Oeste 0 1009.7 0.5 64
2019-09-22 17:00:00 26.7 10 Noroeste 26 Noroeste 0 1009.2 -0.7 52
2019-09-22 16:00:00 26.4 18 Noroeste 33 Noroeste 0 1009.2 -1 54
2019-09-22 15:00:00 27.1 7 Oeste 21 Oeste 0 1009.2 -1 55
2019-09-22 14:00:00 26.4 8 Oeste 26 Oeste 0 1009.9 -0.3 59
2019-09-22 13:00:00 25.8 9 Oeste 23 Oeste 0 1010.2 0.6 64
2019-09-22 12:00:00 24.9 13 Oeste 23 Oeste 0 1010.2 1 65
2019-09-22 11:00:00 24.4 14 Oeste 25 Sudoeste 0 1010.2 1.7 68
2019-09-22 10:00:00 23.6 14 Oeste 22 Sudoeste 0 1009.6 1.4 75
2019-09-22 09:00:00 22.2 10 Oeste 18 Sudoeste 0 1009.2 1.3 75
2019-09-22 08:00:00 21.5 11 Sudoeste 19 Oeste 0 1008.5 0.5 87
2019-09-22 07:00:00 21.2 9 Oeste 18 Oeste 0 1008.2 0.1 88
2019-09-22 06:00:00 21.4 6 Oeste 16 Oeste 0 1007.9 -0.5 87
2019-09-22 05:00:00 21.5 4 Oeste 12 Noroeste 0 1008 -0.7 87
2019-09-22 04:00:00 21.6 0 Calma 10 Oeste 0 1008.1 -0.6 87
2019-09-22 03:00:00 22.2 3 Oeste 12 Oeste 0 1008.4 -0.4 84
2019-09-22 02:00:00 22.1 8 Oeste 16 Oeste 0 1008.7 0.2 86
2019-09-22 01:00:00 22.2 7 Oeste 14 Oeste 0 1008.7 0.8 85
2019-09-22 00:00:00 22.5 5 Noroeste 12 Noroeste 0 1008.8 1.5 85
2019-09-21 23:00:00 22.7 3 Noroeste 12 Noroeste 0 1008.5 1 84
2019-09-21 22:00:00 22.5 9 Noroeste 13 Noroeste 0 1007.9 0.3 86
2019-09-21 21:00:00 22.8 4 Noroeste 15 Oeste 0 1007.3 -0.1 85
2019-09-21 20:00:00 23.3 9 Oeste 20 Oeste 0 1007.5 0.2 83
2019-09-21 19:00:00 23.7 7 Oeste 25 Oeste 0 1007.6 0.6 82
2019-09-21 18:00:00 23.9 7 Oeste 23 Oeste 0 1007.4 0.4 82
2019-09-21 17:00:00 23.9 8 Oeste 29 Oeste 0 1007.3 -0.3 83
2019-09-21 16:00:00 25.4 9 Oeste 25 Noroeste 0 1007 -0.9 75
2019-09-21 15:00:00 28.5 8 Oeste 20 Oeste 0 1007 -1.5 63
2019-09-21 14:00:00 26 12 Nordeste 20 Nordeste 0 1007.6 -0.7 72
2019-09-21 13:00:00 26.6 5 Noroeste 19 Noroeste 0 1007.9 -0.1 69
2019-09-21 12:00:00 24 5 Oeste 21 Noroeste 0 1008.5 0.9 81
2019-09-21 11:00:00 23.4 5 Oeste 19 Oeste 0 1008.3 1 83
2019-09-21 10:00:00 22.9 12 Oeste 19 Sudoeste 0 1008 1.4 87
2019-09-21 09:00:00 22.5 12 Oeste 22 Sudoeste 0 1007.6 1 89
2019-09-21 08:00:00 22.4 10 Oeste 19 Sudoeste 0 1007.3 1 90
2019-09-21 07:00:00 22.3 6 Oeste 18 Oeste 0 1006.6 0.1 91
2019-09-21 06:00:00 22.2 10 Oeste 20 Oeste 0 1006.6 -0.5 92
2019-09-21 05:00:00 22.3 9 Sudoeste 15 Sudoeste 0 1006.3 -1.1 92
2019-09-21 04:00:00 22.3 6 Noroeste 18 Oeste 0 1006.5 -0.6 92
2019-09-21 03:00:00 22.4 10 Oeste 25 Oeste 0 1007.1 -0.7 92
2019-09-21 02:00:00 23.2 6 Noroeste 14 Oeste 0 1007.4 -0.7 89
2019-09-21 01:00:00 23.9 3 Nordeste 10 Noroeste 0 1007.1 -1.2 90
2019-09-21 00:00:00 24 5 Norte 9 Este 0 1007.8 -0.3 90
2019-09-20 23:00:00 24 5 Nordeste 13 Este 0 1008.1 1 90
2019-09-20 22:00:00 24.1 9 Este 15 Este 0 1008.3 1.1 90
2019-09-20 21:00:00 24.2 10 Este 21 Este 0 1008.1 1.1 89
2019-09-20 20:00:00 24.3 15 Nordeste 21 Nordeste 0 1007.1 0.2 88
2019-09-20 19:00:00 24.6 12 Nordeste 26 Nordeste 0 1007.2 0.1 87
2019-09-20 18:00:00 25 13 Nordeste 22 Nordeste 0 1007 -0.6 85
2019-09-20 17:00:00 25.1 17 Nordeste 27 Nordeste 0 1006.9 -1 84
2019-09-20 16:00:00 25.5 16 Este 26 Nordeste 0 1007.1 -1.3 83
2019-09-20 15:00:00 25.4 17 Nordeste 24 Nordeste 0 1007.6 -1.2 83
2019-09-20 14:00:00 26.2 18 Este 24 Este 0 1007.9 -1.1 79
2019-09-20 13:00:00 26.3 10 Este 17 Este 0 1008.4 -0.3 77
2019-09-20 12:00:00 25.1 9 Este 16 Nordeste 0 1008.8 0.5 81
2019-09-20 11:00:00 24.8 11 Este 15 Este 0 1009 1 83
2019-09-20 10:00:00 24 8 Sudeste 17 Este 0 1008.7 1 88
2019-09-20 09:00:00 23.6 10 Este 15 Este 0 1008.3 0.3 89
2019-09-20 08:00:00 23.4 10 Este 17 Sudeste 0 1008 -0.2 88
2019-09-20 07:00:00 23.4 10 Este 21 Este 0 1007.7 -0.9 89
2019-09-20 06:00:00 23.3 6 Este 12 Este 0 1008 -1.4 87
2019-09-20 05:00:00 23 9 Este 15 Este 0 1008.2 -1.4 87
2019-09-20 04:00:00 22.5 6 Este 11 Este 0 1008.6 -1 87
2019-09-20 03:00:00 22.5 7 Este 10 Este 0 1009.4 -0.4 86
2019-09-20 02:00:00 22.7 5 Este 15 Sudeste 0 1009.6 -0.1 83
2019-09-20 01:00:00 22.8 10 Este 15 Este 0 1009.6 -0.2 83
2019-09-20 00:00:00 23 5 Sudeste 11 Sudeste 0 1009.8 0.6 83
2019-09-19 23:00:00 22.8 6 Este 9 Este 0 1009.7 0.9 86
2019-09-19 22:00:00 22.9 3 Sudeste 8 Este 0 1009.8 1 85
2019-09-19 21:00:00 23 5 Este 12 Nordeste 0 1009.2 0.6 83
2019-09-19 20:00:00 23.4 6 Nordeste 15 Este 0 1008.8 0.2 82
2019-09-19 19:00:00 24.1 12 Norte 20 Nordeste 0 1008.8 -0.1 78
2019-09-19 18:00:00 24.8 17 Norte 22 Norte 0 1008.6 -0.9 73
2019-09-19 17:00:00 25.2 15 Nordeste 22 Nordeste 0 1008.6 -1.3 70
2019-09-19 16:00:00 24.9 13 Nordeste 19 Nordeste 0 1008.9 -1.6 72
2019-09-19 15:00:00 25.7 14 Nordeste 21 Nordeste 0 1009.5 -1.3 64
2019-09-19 14:00:00 25.2 13 Nordeste 18 Este 0 1009.9 -0.9 70
2019-09-19 13:00:00 25.1 11 Nordeste 17 Nordeste 0 1010.5 0.1 72
2019-09-19 12:00:00 24.9 12 Nordeste 17 Este 0 1010.8 0.8 72
2019-09-19 11:00:00 24.7 6 Este 11 Este 0 1010.8 1.3 74
2019-09-19 10:00:00 23.1 3 Norte 7 Norte 0 1010.4 1 79
2019-09-19 09:00:00 20.5 3 Sudoeste 10 Oeste 0 1010 1 84
2019-09-19 08:00:00 19.9 4 Oeste 8 Oeste 0 1009.5 0.5 83
2019-09-19 07:00:00 19.7 5 Oeste 7 Noroeste 0 1009.4 0.1 82
2019-09-19 06:00:00 19.6 7 Noroeste 9 Noroeste 0 1009 -0.7 82
2019-09-19 05:00:00 20.1 3 Noroeste 10 Sudoeste 0 1009 -1.3 80
2019-09-19 04:00:00 20.8 3 Oeste 8 Sudoeste 0 1009.3 -1.2 79
2019-09-19 03:00:00 21.1 6 Sudoeste 9 Sudoeste 0 1009.7 -0.7 80
2019-09-19 02:00:00 21.5 4 Sudoeste 6 Sudoeste 0 1010.3 0 81
2019-09-19 01:00:00 22.1 4 Sudoeste 7 Norte 0 1010.5 0.4 79
2019-09-19 00:00:00 22.8 5 Este 11 Sudeste 0 1010.4 1 86
2019-09-18 23:00:00 23 6 Sudeste 9 Sudeste 0 1010.3 1.3 84
2019-09-18 22:00:00 23.1 4 Noroeste 12 Noroeste 0 1010.1 1.3 74
2019-09-18 21:00:00 23.3 4 Noroeste 15 Oeste 0 1009.4 0.8 74
2019-09-18 20:00:00 23.8 6 Oeste 19 Norte 0 1009 0.3 72
2019-09-18 19:00:00 24.1 9 Noroeste 24 Noroeste 0 1008.8 -0.1 72
2019-09-18 18:00:00 24.8 9 Oeste 26 Sudoeste 0 1008.6 -0.8 70
2019-09-18 17:00:00 25.7 11 Noroeste 24 Noroeste 0 1008.7 -1 67
2019-09-18 16:00:00 26.3 10 Oeste 25 Oeste 0 1008.9 -1.2 68
2019-09-18 15:00:00 26.6 10 Oeste 21 Oeste 0 1009.4 -0.5 67
2019-09-18 14:00:00 25.9 7 Oeste 24 Oeste 0 1009.7 -0.3 71
2019-09-18 13:00:00 24.4 8 Oeste 22 Oeste 0 1010.1 0.5 79
2019-09-18 12:00:00 24.7 6 Oeste 17 Noroeste 0 1009.9 0.9 78
2019-09-18 11:00:00 23.8 8 Oeste 18 Oeste 0 1010 1.3 82
2019-09-18 10:00:00 22.7 5 Oeste 15 Oeste 0 1009.6 1.4 88
2019-09-18 09:00:00 21.8 5 Oeste 16 Oeste 0 1009 1.1 92
2019-09-18 08:00:00 22.3 5 Oeste 15 Noroeste 0 1008.7 0.8 91
2019-09-18 07:00:00 22.4 4 Oeste 15 Oeste 0 1008.2 -0.2 90
2019-09-18 06:00:00 22.5 5 Oeste 12 Noroeste 0 1007.9 -0.7 89
2019-09-18 05:00:00 22.6 4 Oeste 13 Oeste 0 1007.9 -1 88
2019-09-18 04:00:00 22.3 7 Oeste 12 Noroeste 0 1008.4 -0.9 90
2019-09-18 03:00:00 22.4 8 Noroeste 12 Noroeste 0 1008.6 -0.5 90
2019-09-18 02:00:00 23.7 3 Oeste 8 Norte 0 1008.9 -0.1 86
2019-09-18 01:00:00 23.7 3 Noroeste 10 Nordeste 0 1009.3 0.9 88
2019-09-18 00:00:00 23.8 9 Nordeste 15 Nordeste 0 1009.1 1.1 88
2019-09-17 23:00:00 23.9 9 Norte 19 Norte 0 1009 1.1 87
2019-09-17 22:00:00 23.8 13 Norte 19 Norte 0 1008.4 0.5 87
2019-09-17 21:00:00 24 10 Norte 16 Norte 0 1008 0.2 86
2019-09-15 18:00:00 25.7 9 Nordeste 19 Nordeste 0 1010.7 -0.4 79
2019-09-15 17:00:00 25.9 13 Nordeste 18 Nordeste 0 1010.7 -0.8 79
2019-09-15 16:00:00 26 12 Nordeste 21 Nordeste 0 1010.8 -1.1 78
2019-09-15 15:00:00 25.5 8 Nordeste 20 Nordeste 0 1011.1 -0.8 81
2019-09-15 14:00:00 25 4 Noroeste 14 Noroeste 0 1011.5 -0.1 82
2019-09-15 13:00:00 24.4 4 Noroeste 11 Oeste 0 1011.9 0.6 85
2019-09-15 12:00:00 24.4 10 Nordeste 20 Noroeste 0 1011.9 1.4 87
2019-09-15 11:00:00 24.3 8 Norte 12 Nordeste 0 1011.6 1.3 88
2019-09-15 10:00:00 23.8 4 Norte 8 Norte 0 1011.3 1.1 89
2019-09-15 09:00:00 23.1 3 Oeste 6 Oeste 0 1010.5 0.3 94
2019-09-15 08:00:00 22.9 2 Noroeste 8 Noroeste 0 1010.3 0.1 95
2019-09-15 07:00:00 23.2 5 Nordeste 10 Sudeste 0 1010.2 -0.8 94
2019-09-15 06:00:00 23.3 8 Sudeste 14 Sudeste 0 1010.2 -1.1 94
2019-09-15 05:00:00 23.5 6 Sudeste 15 Sudeste 0 1010.2 -1.1 95
2019-09-15 04:00:00 23.3 9 Este 21 Este 0 1011 -0.6 95
2019-09-15 03:00:00 23.4 14 Este 22 Este 0 1011.3 -0.5 94
2019-09-15 02:00:00 23.3 11 Este 17 Este 0 1011.3 -0.6 95
2019-09-15 01:00:00 23.3 10 Este 15 Este 0 1011.6 0 94
2019-09-15 00:00:00 23.4 9 Este 16 Este 0 1011.8 0.7 94